sensor_id;sensor_type;location;lat;lon;timestamp;P1;durP1;ratioP1;P2;durP2;ratioP2
77864;SDS011;67061;48.524;9.040;2023-02-11T00:00:42;29.85;;;14.32;;
77864;SDS011;67061;48.524;9.040;2023-02-11T00:03:09;27.48;;;12.63;;
77864;SDS011;67061;48.524;9.040;2023-02-11T00:05:36;28.48;;;13.00;;
77864;SDS011;67061;48.524;9.040;2023-02-11T00:08:03;30.77;;;13.65;;
77864;SDS011;67061;48.524;9.040;2023-02-11T00:10:30;29.30;;;12.40;;
77864;SDS011;67061;48.524;9.040;2023-02-11T00:12:58;28.27;;;12.65;;
77864;SDS011;67061;48.524;9.040;2023-02-11T00:15:25;27.60;;;13.02;;
77864;SDS011;67061;48.524;9.040;2023-02-11T00:17:52;29.80;;;14.00;;
77864;SDS011;67061;48.524;9.040;2023-02-11T00:20:19;30.45;;;14.38;;
77864;SDS011;67061;48.524;9.040;2023-02-11T00:22:46;34.38;;;15.00;;
77864;SDS011;67061;48.524;9.040;2023-02-11T00:25:12;33.65;;;14.30;;
77864;SDS011;67061;48.524;9.040;2023-02-11T00:27:39;29.92;;;13.02;;
77864;SDS011;67061;48.524;9.040;2023-02-11T00:30:09;32.00;;;14.90;;
77864;SDS011;67061;48.524;9.040;2023-02-11T00:32:36;32.15;;;15.30;;
77864;SDS011;67061;48.524;9.040;2023-02-11T00:35:03;32.30;;;14.90;;
77864;SDS011;67061;48.524;9.040;2023-02-11T00:37:30;39.88;;;16.00;;
77864;SDS011;67061;48.524;9.040;2023-02-11T00:40:00;32.70;;;14.75;;
77864;SDS011;67061;48.524;9.040;2023-02-11T00:42:27;37.00;;;17.38;;
77864;SDS011;67061;48.524;9.040;2023-02-11T00:44:54;36.75;;;16.75;;
77864;SDS011;67061;48.524;9.040;2023-02-11T00:47:22;34.08;;;17.77;;
77864;SDS011;67061;48.524;9.040;2023-02-11T00:49:49;37.65;;;16.42;;
77864;SDS011;67061;48.524;9.040;2023-02-11T00:52:16;35.60;;;17.15;;
77864;SDS011;67061;48.524;9.040;2023-02-11T00:54:43;35.72;;;15.70;;
77864;SDS011;67061;48.524;9.040;2023-02-11T00:57:10;36.00;;;15.43;;
77864;SDS011;67061;48.524;9.040;2023-02-11T00:59:36;41.80;;;17.50;;
77864;SDS011;67061;48.524;9.040;2023-02-11T01:02:04;37.28;;;16.08;;
77864;SDS011;67061;48.524;9.040;2023-02-11T01:04:32;35.42;;;16.90;;
77864;SDS011;67061;48.524;9.040;2023-02-11T01:06:59;37.90;;;17.10;;
77864;SDS011;67061;48.524;9.040;2023-02-11T01:09:26;37.28;;;17.17;;
77864;SDS011;67061;48.524;9.040;2023-02-11T01:11:53;38.17;;;17.05;;
77864;SDS011;67061;48.524;9.040;2023-02-11T01:14:20;41.70;;;18.25;;
77864;SDS011;67061;48.524;9.040;2023-02-11T01:16:47;46.25;;;18.20;;
77864;SDS011;67061;48.524;9.040;2023-02-11T01:19:13;37.38;;;17.30;;
77864;SDS011;67061;48.524;9.040;2023-02-11T01:21:42;39.20;;;17.38;;
77864;SDS011;67061;48.524;9.040;2023-02-11T01:24:09;39.17;;;16.17;;
77864;SDS011;67061;48.524;9.040;2023-02-11T01:26:35;39.33;;;17.80;;
77864;SDS011;67061;48.524;9.040;2023-02-11T01:29:02;38.13;;;16.40;;
77864;SDS011;67061;48.524;9.040;2023-02-11T01:31:29;38.95;;;17.08;;
77864;SDS011;67061;48.524;9.040;2023-02-11T01:33:56;35.20;;;16.38;;
77864;SDS011;67061;48.524;9.040;2023-02-11T01:36:23;38.70;;;17.42;;
77864;SDS011;67061;48.524;9.040;2023-02-11T01:38:51;40.22;;;18.35;;
77864;SDS011;67061;48.524;9.040;2023-02-11T01:41:18;41.92;;;17.98;;
77864;SDS011;67061;48.524;9.040;2023-02-11T01:43:46;37.38;;;17.88;;
77864;SDS011;67061;48.524;9.040;2023-02-11T01:49:02;38.90;;;16.70;;
77864;SDS011;67061;48.524;9.040;2023-02-11T01:51:33;39.72;;;17.10;;
77864;SDS011;67061;48.524;9.040;2023-02-11T01:54:05;38.78;;;15.88;;
77864;SDS011;67061;48.524;9.040;2023-02-11T01:56:52;36.45;;;15.95;;
77864;SDS011;67061;48.524;9.040;2023-02-11T01:59:40;35.58;;;16.13;;
77864;SDS011;67061;48.524;9.040;2023-02-11T02:02:13;30.58;;;13.80;;
77864;SDS011;67061;48.524;9.040;2023-02-11T02:04:44;35.78;;;15.57;;
77864;SDS011;67061;48.524;9.040;2023-02-11T02:07:16;31.45;;;14.50;;
77864;SDS011;67061;48.524;9.040;2023-02-11T02:09:57;30.08;;;13.90;;
77864;SDS011;67061;48.524;9.040;2023-02-11T02:12:26;32.75;;;14.85;;
77864;SDS011;67061;48.524;9.040;2023-02-11T02:15:09;29.13;;;14.38;;
77864;SDS011;67061;48.524;9.040;2023-02-11T02:17:53;35.90;;;15.05;;
77864;SDS011;67061;48.524;9.040;2023-02-11T02:29:35;30.10;;;13.55;;
77864;SDS011;67061;48.524;9.040;2023-02-11T02:32:33;29.02;;;13.27;;
77864;SDS011;67061;48.524;9.040;2023-02-11T02:35:18;33.25;;;16.67;;
77864;SDS011;67061;48.524;9.040;2023-02-11T02:37:55;34.08;;;15.25;;
77864;SDS011;67061;48.524;9.040;2023-02-11T02:40:27;32.22;;;14.73;;
77864;SDS011;67061;48.524;9.040;2023-02-11T02:42:57;31.02;;;14.73;;
77864;SDS011;67061;48.524;9.040;2023-02-11T02:45:26;33.80;;;15.77;;
77864;SDS011;67061;48.524;9.040;2023-02-11T02:47:54;32.47;;;13.95;;
77864;SDS011;67061;48.524;9.040;2023-02-11T02:50:23;30.65;;;14.00;;
77864;SDS011;67061;48.524;9.040;2023-02-11T02:52:57;31.75;;;14.32;;
77864;SDS011;67061;48.524;9.040;2023-02-11T02:55:41;28.90;;;13.27;;
77864;SDS011;67061;48.524;9.040;2023-02-11T03:01:23;29.90;;;14.63;;
77864;SDS011;67061;48.524;9.040;2023-02-11T03:04:02;32.33;;;15.15;;
77864;SDS011;67061;48.524;9.040;2023-02-11T03:06:37;31.80;;;14.45;;
77864;SDS011;67061;48.524;9.040;2023-02-11T03:09:12;33.75;;;14.73;;
77864;SDS011;67061;48.524;9.040;2023-02-11T03:11:44;31.67;;;13.98;;
77864;SDS011;67061;48.524;9.040;2023-02-11T03:14:12;29.17;;;13.68;;
77864;SDS011;67061;48.524;9.040;2023-02-11T03:16:42;35.58;;;14.57;;
77864;SDS011;67061;48.524;9.040;2023-02-11T03:19:12;32.28;;;14.43;;
77864;SDS011;67061;48.524;9.040;2023-02-11T03:21:43;34.55;;;15.30;;
77864;SDS011;67061;48.524;9.040;2023-02-11T03:24:14;31.63;;;14.75;;
77864;SDS011;67061;48.524;9.040;2023-02-11T03:26:47;32.67;;;14.85;;
77864;SDS011;67061;48.524;9.040;2023-02-11T03:29:17;32.92;;;15.32;;
77864;SDS011;67061;48.524;9.040;2023-02-11T03:31:58;31.45;;;13.80;;
77864;SDS011;67061;48.524;9.040;2023-02-11T03:34:32;33.10;;;14.07;;
77864;SDS011;67061;48.524;9.040;2023-02-11T03:37:04;33.42;;;14.35;;
77864;SDS011;67061;48.524;9.040;2023-02-11T03:39:35;30.63;;;15.50;;
77864;SDS011;67061;48.524;9.040;2023-02-11T03:42:06;32.08;;;14.07;;
77864;SDS011;67061;48.524;9.040;2023-02-11T03:44:36;35.30;;;15.98;;
77864;SDS011;67061;48.524;9.040;2023-02-11T03:47:07;28.25;;;15.50;;
77864;SDS011;67061;48.524;9.040;2023-02-11T03:49:41;36.45;;;16.60;;
77864;SDS011;67061;48.524;9.040;2023-02-11T03:52:11;34.15;;;15.30;;
77864;SDS011;67061;48.524;9.040;2023-02-11T03:54:41;30.05;;;14.82;;
77864;SDS011;67061;48.524;9.040;2023-02-11T03:57:10;36.38;;;15.63;;
77864;SDS011;67061;48.524;9.040;2023-02-11T03:59:50;37.67;;;16.65;;
77864;SDS011;67061;48.524;9.040;2023-02-11T04:02:18;32.20;;;14.73;;
77864;SDS011;67061;48.524;9.040;2023-02-11T04:04:47;35.72;;;15.68;;
77864;SDS011;67061;48.524;9.040;2023-02-11T04:07:14;34.00;;;15.13;;
77864;SDS011;67061;48.524;9.040;2023-02-11T04:09:41;34.78;;;15.80;;
77864;SDS011;67061;48.524;9.040;2023-02-11T04:12:08;31.15;;;14.68;;
77864;SDS011;67061;48.524;9.040;2023-02-11T04:14:35;32.95;;;15.18;;
77864;SDS011;67061;48.524;9.040;2023-02-11T04:17:02;34.58;;;15.80;;
77864;SDS011;67061;48.524;9.040;2023-02-11T04:19:29;35.78;;;16.13;;
77864;SDS011;67061;48.524;9.040;2023-02-11T04:21:58;38.33;;;16.27;;
77864;SDS011;67061;48.524;9.040;2023-02-11T04:24:24;34.17;;;15.13;;
77864;SDS011;67061;48.524;9.040;2023-02-11T04:26:51;33.05;;;15.00;;
77864;SDS011;67061;48.524;9.040;2023-02-11T04:29:18;34.08;;;14.52;;
77864;SDS011;67061;48.524;9.040;2023-02-11T04:31:45;31.20;;;14.68;;
77864;SDS011;67061;48.524;9.040;2023-02-11T04:34:12;34.92;;;15.65;;
77864;SDS011;67061;48.524;9.040;2023-02-11T04:36:40;31.42;;;14.18;;
77864;SDS011;67061;48.524;9.040;2023-02-11T04:39:09;29.92;;;14.68;;
77864;SDS011;67061;48.524;9.040;2023-02-11T04:41:36;30.05;;;13.98;;
77864;SDS011;67061;48.524;9.040;2023-02-11T04:44:03;34.28;;;15.02;;
77864;SDS011;67061;48.524;9.040;2023-02-11T04:46:30;34.08;;;14.77;;
77864;SDS011;67061;48.524;9.040;2023-02-11T04:48:57;34.35;;;15.07;;
77864;SDS011;67061;48.524;9.040;2023-02-11T04:51:24;30.10;;;14.60;;
77864;SDS011;67061;48.524;9.040;2023-02-11T04:53:51;39.25;;;16.45;;
77864;SDS011;67061;48.524;9.040;2023-02-11T04:56:19;35.90;;;14.23;;
77864;SDS011;67061;48.524;9.040;2023-02-11T04:58:46;31.30;;;14.98;;
77864;SDS011;67061;48.524;9.040;2023-02-11T05:01:13;36.03;;;15.90;;
77864;SDS011;67061;48.524;9.040;2023-02-11T05:03:41;34.78;;;16.45;;
77864;SDS011;67061;48.524;9.040;2023-02-11T05:06:08;37.88;;;14.70;;
77864;SDS011;67061;48.524;9.040;2023-02-11T05:08:36;35.08;;;15.68;;
77864;SDS011;67061;48.524;9.040;2023-02-11T05:11:05;33.58;;;15.48;;
77864;SDS011;67061;48.524;9.040;2023-02-11T05:13:34;32.97;;;15.90;;
77864;SDS011;67061;48.524;9.040;2023-02-11T05:16:01;34.00;;;16.05;;
77864;SDS011;67061;48.524;9.040;2023-02-11T05:18:28;31.98;;;15.00;;
77864;SDS011;67061;48.524;9.040;2023-02-11T05:20:55;35.75;;;18.70;;
77864;SDS011;67061;48.524;9.040;2023-02-11T05:23:22;32.60;;;14.82;;
77864;SDS011;67061;48.524;9.040;2023-02-11T05:25:49;33.45;;;15.98;;
77864;SDS011;67061;48.524;9.040;2023-02-11T05:28:15;32.45;;;16.20;;
77864;SDS011;67061;48.524;9.040;2023-02-11T05:30:44;33.63;;;16.27;;
77864;SDS011;67061;48.524;9.040;2023-02-11T05:33:10;30.75;;;15.05;;
77864;SDS011;67061;48.524;9.040;2023-02-11T05:35:37;31.77;;;17.40;;
77864;SDS011;67061;48.524;9.040;2023-02-11T05:38:04;34.03;;;15.90;;
77864;SDS011;67061;48.524;9.040;2023-02-11T05:40:31;35.30;;;16.30;;
77864;SDS011;67061;48.524;9.040;2023-02-11T05:42:58;35.13;;;15.93;;
77864;SDS011;67061;48.524;9.040;2023-02-11T05:45:25;30.17;;;15.35;;
77864;SDS011;67061;48.524;9.040;2023-02-11T05:47:53;35.30;;;15.77;;
77864;SDS011;67061;48.524;9.040;2023-02-11T05:50:20;35.67;;;15.70;;
77864;SDS011;67061;48.524;9.040;2023-02-11T05:52:47;35.72;;;16.02;;
77864;SDS011;67061;48.524;9.040;2023-02-11T05:55:14;31.77;;;16.00;;
77864;SDS011;67061;48.524;9.040;2023-02-11T05:57:41;34.08;;;16.63;;
77864;SDS011;67061;48.524;9.040;2023-02-11T06:00:08;33.63;;;14.98;;
77864;SDS011;67061;48.524;9.040;2023-02-11T06:02:36;33.47;;;16.48;;
77864;SDS011;67061;48.524;9.040;2023-02-11T06:05:04;30.50;;;15.32;;
77864;SDS011;67061;48.524;9.040;2023-02-11T06:07:32;32.35;;;16.00;;
77864;SDS011;67061;48.524;9.040;2023-02-11T06:09:59;33.03;;;14.68;;
77864;SDS011;67061;48.524;9.040;2023-02-11T06:12:25;34.38;;;16.17;;
77864;SDS011;67061;48.524;9.040;2023-02-11T06:14:52;30.25;;;15.43;;
77864;SDS011;67061;48.524;9.040;2023-02-11T06:17:19;32.05;;;15.93;;
77864;SDS011;67061;48.524;9.040;2023-02-11T06:19:47;34.25;;;15.95;;
77864;SDS011;67061;48.524;9.040;2023-02-11T06:22:16;31.25;;;15.60;;
77864;SDS011;67061;48.524;9.040;2023-02-11T06:24:43;38.75;;;17.70;;
77864;SDS011;67061;48.524;9.040;2023-02-11T06:27:10;41.50;;;19.05;;
77864;SDS011;67061;48.524;9.040;2023-02-11T06:29:38;37.85;;;19.00;;
77864;SDS011;67061;48.524;9.040;2023-02-11T06:32:04;36.42;;;18.67;;
77864;SDS011;67061;48.524;9.040;2023-02-11T06:34:31;31.27;;;16.63;;
77864;SDS011;67061;48.524;9.040;2023-02-11T06:36:58;35.58;;;17.30;;
77864;SDS011;67061;48.524;9.040;2023-02-11T06:39:26;37.50;;;19.60;;
77864;SDS011;67061;48.524;9.040;2023-02-11T06:41:53;32.38;;;16.23;;
77864;SDS011;67061;48.524;9.040;2023-02-11T06:44:20;34.42;;;19.45;;
77864;SDS011;67061;48.524;9.040;2023-02-11T06:46:47;35.50;;;16.63;;
77864;SDS011;67061;48.524;9.040;2023-02-11T06:49:14;35.00;;;16.52;;
77864;SDS011;67061;48.524;9.040;2023-02-11T06:51:41;38.33;;;17.73;;
77864;SDS011;67061;48.524;9.040;2023-02-11T06:54:07;31.73;;;15.80;;
77864;SDS011;67061;48.524;9.040;2023-02-11T06:56:38;32.33;;;16.15;;
77864;SDS011;67061;48.524;9.040;2023-02-11T06:59:05;34.97;;;18.55;;
77864;SDS011;67061;48.524;9.040;2023-02-11T07:01:32;32.45;;;16.50;;
77864;SDS011;67061;48.524;9.040;2023-02-11T07:03:59;35.17;;;16.98;;
77864;SDS011;67061;48.524;9.040;2023-02-11T07:06:26;36.90;;;16.23;;
77864;SDS011;67061;48.524;9.040;2023-02-11T07:08:53;35.38;;;17.10;;
77864;SDS011;67061;48.524;9.040;2023-02-11T07:11:22;28.88;;;15.82;;
77864;SDS011;67061;48.524;9.040;2023-02-11T07:13:52;36.15;;;16.33;;
77864;SDS011;67061;48.524;9.040;2023-02-11T07:16:20;31.45;;;15.23;;
77864;SDS011;67061;48.524;9.040;2023-02-11T07:18:48;32.00;;;15.98;;
77864;SDS011;67061;48.524;9.040;2023-02-11T07:21:16;29.83;;;15.32;;
77864;SDS011;67061;48.524;9.040;2023-02-11T07:23:44;30.95;;;15.65;;
77864;SDS011;67061;48.524;9.040;2023-02-11T07:26:13;31.95;;;16.48;;
77864;SDS011;67061;48.524;9.040;2023-02-11T07:28:42;32.05;;;15.52;;
77864;SDS011;67061;48.524;9.040;2023-02-11T07:31:11;31.58;;;15.38;;
77864;SDS011;67061;48.524;9.040;2023-02-11T07:33:40;32.58;;;17.05;;
77864;SDS011;67061;48.524;9.040;2023-02-11T07:36:07;31.10;;;15.88;;
77864;SDS011;67061;48.524;9.040;2023-02-11T07:38:36;38.47;;;19.45;;
77864;SDS011;67061;48.524;9.040;2023-02-11T07:41:04;33.33;;;17.10;;
77864;SDS011;67061;48.524;9.040;2023-02-11T07:43:33;34.97;;;16.45;;
77864;SDS011;67061;48.524;9.040;2023-02-11T07:46:02;31.50;;;16.33;;
77864;SDS011;67061;48.524;9.040;2023-02-11T07:48:30;31.55;;;15.80;;
77864;SDS011;67061;48.524;9.040;2023-02-11T07:51:03;36.28;;;17.13;;
77864;SDS011;67061;48.524;9.040;2023-02-11T07:53:31;32.33;;;16.65;;
77864;SDS011;67061;48.524;9.040;2023-02-11T07:55:58;34.83;;;16.48;;
77864;SDS011;67061;48.524;9.040;2023-02-11T07:58:25;38.80;;;20.15;;
77864;SDS011;67061;48.524;9.040;2023-02-11T08:00:53;32.75;;;17.15;;
77864;SDS011;67061;48.524;9.040;2023-02-11T08:03:19;31.95;;;15.35;;
77864;SDS011;67061;48.524;9.040;2023-02-11T08:05:48;29.33;;;16.33;;
77864;SDS011;67061;48.524;9.040;2023-02-11T08:08:14;28.42;;;15.05;;
77864;SDS011;67061;48.524;9.040;2023-02-11T08:10:41;33.00;;;16.45;;
77864;SDS011;67061;48.524;9.040;2023-02-11T08:13:08;31.20;;;15.60;;
77864;SDS011;67061;48.524;9.040;2023-02-11T08:15:35;37.10;;;18.23;;
77864;SDS011;67061;48.524;9.040;2023-02-11T08:18:02;35.03;;;17.27;;
77864;SDS011;67061;48.524;9.040;2023-02-11T08:20:29;31.42;;;16.58;;
77864;SDS011;67061;48.524;9.040;2023-02-11T08:22:57;37.60;;;17.15;;
77864;SDS011;67061;48.524;9.040;2023-02-11T08:25:24;34.55;;;16.77;;
77864;SDS011;67061;48.524;9.040;2023-02-11T08:27:51;33.35;;;16.85;;
77864;SDS011;67061;48.524;9.040;2023-02-11T08:30:18;33.08;;;18.05;;
77864;SDS011;67061;48.524;9.040;2023-02-11T08:32:45;35.75;;;16.85;;
77864;SDS011;67061;48.524;9.040;2023-02-11T08:35:12;31.55;;;16.15;;
77864;SDS011;67061;48.524;9.040;2023-02-11T08:37:41;30.38;;;16.80;;
77864;SDS011;67061;48.524;9.040;2023-02-11T08:40:10;31.85;;;15.82;;
77864;SDS011;67061;48.524;9.040;2023-02-11T08:42:37;33.45;;;16.13;;
77864;SDS011;67061;48.524;9.040;2023-02-11T08:45:04;33.55;;;16.60;;
77864;SDS011;67061;48.524;9.040;2023-02-11T08:47:31;34.20;;;16.88;;
77864;SDS011;67061;48.524;9.040;2023-02-11T08:49:58;34.60;;;17.35;;
77864;SDS011;67061;48.524;9.040;2023-02-11T08:52:25;30.00;;;17.80;;
77864;SDS011;67061;48.524;9.040;2023-02-11T08:54:52;33.85;;;16.23;;
77864;SDS011;67061;48.524;9.040;2023-02-11T08:57:20;34.97;;;17.42;;
77864;SDS011;67061;48.524;9.040;2023-02-11T08:59:47;33.25;;;16.40;;
77864;SDS011;67061;48.524;9.040;2023-02-11T09:02:14;32.50;;;16.50;;
77864;SDS011;67061;48.524;9.040;2023-02-11T09:04:41;32.75;;;16.77;;
77864;SDS011;67061;48.524;9.040;2023-02-11T09:07:08;31.80;;;16.77;;
77864;SDS011;67061;48.524;9.040;2023-02-11T09:09:34;33.92;;;17.48;;
77864;SDS011;67061;48.524;9.040;2023-02-11T09:12:01;27.33;;;14.35;;
77864;SDS011;67061;48.524;9.040;2023-02-11T09:14:30;32.15;;;17.40;;
77864;SDS011;67061;48.524;9.040;2023-02-11T09:16:57;35.13;;;16.85;;
77864;SDS011;67061;48.524;9.040;2023-02-11T09:19:23;33.97;;;18.13;;
77864;SDS011;67061;48.524;9.040;2023-02-11T09:21:50;31.52;;;16.48;;
77864;SDS011;67061;48.524;9.040;2023-02-11T09:24:17;34.97;;;19.33;;
77864;SDS011;67061;48.524;9.040;2023-02-11T09:26:44;32.40;;;17.30;;
77864;SDS011;67061;48.524;9.040;2023-02-11T09:29:11;30.55;;;16.98;;
77864;SDS011;67061;48.524;9.040;2023-02-11T09:31:39;31.33;;;17.40;;
77864;SDS011;67061;48.524;9.040;2023-02-11T09:34:06;31.00;;;17.65;;
77864;SDS011;67061;48.524;9.040;2023-02-11T09:36:34;30.85;;;16.27;;
77864;SDS011;67061;48.524;9.040;2023-02-11T09:39:03;31.17;;;17.00;;
77864;SDS011;67061;48.524;9.040;2023-02-11T09:41:34;32.70;;;16.95;;
77864;SDS011;67061;48.524;9.040;2023-02-11T09:44:15;32.60;;;17.00;;
77864;SDS011;67061;48.524;9.040;2023-02-11T09:46:46;31.23;;;19.38;;
77864;SDS011;67061;48.524;9.040;2023-02-11T09:49:21;29.17;;;16.40;;
77864;SDS011;67061;48.524;9.040;2023-02-11T09:51:52;33.55;;;17.02;;
77864;SDS011;67061;48.524;9.040;2023-02-11T09:54:26;27.00;;;17.10;;
77864;SDS011;67061;48.524;9.040;2023-02-11T09:56:55;31.67;;;18.50;;
77864;SDS011;67061;48.524;9.040;2023-02-11T09:59:22;28.58;;;14.13;;
77864;SDS011;67061;48.524;9.040;2023-02-11T10:01:52;29.00;;;15.88;;
77864;SDS011;67061;48.524;9.040;2023-02-11T10:04:27;28.80;;;15.88;;
77864;SDS011;67061;48.524;9.040;2023-02-11T10:07:11;30.95;;;17.08;;
77864;SDS011;67061;48.524;9.040;2023-02-11T10:09:50;28.60;;;15.07;;
77864;SDS011;67061;48.524;9.040;2023-02-11T10:12:31;34.80;;;14.07;;
77864;SDS011;67061;48.524;9.040;2023-02-11T10:15:15;28.95;;;15.38;;
77864;SDS011;67061;48.524;9.040;2023-02-11T10:17:52;26.70;;;14.27;;
77864;SDS011;67061;48.524;9.040;2023-02-11T10:20:43;28.63;;;14.10;;
77864;SDS011;67061;48.524;9.040;2023-02-11T10:23:14;28.52;;;14.30;;
77864;SDS011;67061;48.524;9.040;2023-02-11T10:25:46;26.70;;;12.85;;
77864;SDS011;67061;48.524;9.040;2023-02-11T10:28:17;23.63;;;12.57;;
77864;SDS011;67061;48.524;9.040;2023-02-11T10:30:48;25.50;;;12.93;;
77864;SDS011;67061;48.524;9.040;2023-02-11T10:33:24;23.13;;;12.10;;
77864;SDS011;67061;48.524;9.040;2023-02-11T10:35:54;20.60;;;11.43;;
77864;SDS011;67061;48.524;9.040;2023-02-11T10:38:21;22.58;;;13.75;;
77864;SDS011;67061;48.524;9.040;2023-02-11T10:40:48;22.45;;;13.07;;
77864;SDS011;67061;48.524;9.040;2023-02-11T10:43:15;23.40;;;12.50;;
77864;SDS011;67061;48.524;9.040;2023-02-11T10:45:45;22.33;;;12.13;;
77864;SDS011;67061;48.524;9.040;2023-02-11T10:51:16;20.35;;;10.82;;
77864;SDS011;67061;48.524;9.040;2023-02-11T10:53:45;21.17;;;11.80;;
77864;SDS011;67061;48.524;9.040;2023-02-11T10:56:24;16.92;;;10.20;;
77864;SDS011;67061;48.524;9.040;2023-02-11T10:58:54;19.27;;;9.68;;
77864;SDS011;67061;48.524;9.040;2023-02-11T11:01:36;19.90;;;10.25;;
77864;SDS011;67061;48.524;9.040;2023-02-11T11:04:20;20.00;;;10.13;;
77864;SDS011;67061;48.524;9.040;2023-02-11T11:07:13;15.88;;;9.00;;
77864;SDS011;67061;48.524;9.040;2023-02-11T11:09:44;15.27;;;8.45;;
77864;SDS011;67061;48.524;9.040;2023-02-11T11:14:59;14.82;;;8.65;;
77864;SDS011;67061;48.524;9.040;2023-02-11T11:17:29;15.73;;;8.10;;
77864;SDS011;67061;48.524;9.040;2023-02-11T11:23:08;17.98;;;9.23;;
77864;SDS011;67061;48.524;9.040;2023-02-11T11:25:42;17.80;;;8.95;;
77864;SDS011;67061;48.524;9.040;2023-02-11T11:28:18;14.43;;;9.02;;
77864;SDS011;67061;48.524;9.040;2023-02-11T11:30:48;14.05;;;8.55;;
77864;SDS011;67061;48.524;9.040;2023-02-11T11:33:18;14.07;;;8.00;;
77864;SDS011;67061;48.524;9.040;2023-02-11T11:35:58;15.15;;;8.25;;
77864;SDS011;67061;48.524;9.040;2023-02-11T11:38:30;15.25;;;8.55;;
77864;SDS011;67061;48.524;9.040;2023-02-11T11:41:16;13.82;;;8.55;;
77864;SDS011;67061;48.524;9.040;2023-02-11T11:43:53;15.30;;;8.82;;
77864;SDS011;67061;48.524;9.040;2023-02-11T11:46:25;13.00;;;7.82;;
77864;SDS011;67061;48.524;9.040;2023-02-11T11:48:55;11.32;;;7.65;;
77864;SDS011;67061;48.524;9.040;2023-02-11T11:51:28;12.55;;;7.40;;
77864;SDS011;67061;48.524;9.040;2023-02-11T11:53:59;12.40;;;6.88;;
77864;SDS011;67061;48.524;9.040;2023-02-11T11:56:31;10.98;;;6.90;;
77864;SDS011;67061;48.524;9.040;2023-02-11T11:58:59;13.73;;;8.70;;
77864;SDS011;67061;48.524;9.040;2023-02-11T12:01:33;11.18;;;6.85;;
77864;SDS011;67061;48.524;9.040;2023-02-11T12:07:15;12.05;;;6.55;;
77864;SDS011;67061;48.524;9.040;2023-02-11T12:09:54;13.13;;;6.25;;
77864;SDS011;67061;48.524;9.040;2023-02-11T12:12:39;11.80;;;6.55;;
77864;SDS011;67061;48.524;9.040;2023-02-11T12:15:18;11.98;;;7.10;;
77864;SDS011;67061;48.524;9.040;2023-02-11T12:17:59;11.07;;;6.63;;
77864;SDS011;67061;48.524;9.040;2023-02-11T12:20:37;12.02;;;6.80;;
77864;SDS011;67061;48.524;9.040;2023-02-11T12:23:20;10.70;;;6.20;;
77864;SDS011;67061;48.524;9.040;2023-02-11T12:26:00;10.90;;;6.63;;
77864;SDS011;67061;48.524;9.040;2023-02-11T12:28:36;10.73;;;6.18;;
77864;SDS011;67061;48.524;9.040;2023-02-11T12:31:12;9.63;;;6.75;;
77864;SDS011;67061;48.524;9.040;2023-02-11T12:33:55;13.25;;;6.32;;
77864;SDS011;67061;48.524;9.040;2023-02-11T12:36:46;10.43;;;5.70;;
77864;SDS011;67061;48.524;9.040;2023-02-11T12:39:32;10.25;;;6.10;;
77864;SDS011;67061;48.524;9.040;2023-02-11T12:42:08;10.70;;;6.85;;
77864;SDS011;67061;48.524;9.040;2023-02-11T12:45:16;10.15;;;5.55;;
77864;SDS011;67061;48.524;9.040;2023-02-11T12:47:58;9.82;;;5.60;;
77864;SDS011;67061;48.524;9.040;2023-02-11T12:53:11;9.07;;;5.22;;
77864;SDS011;67061;48.524;9.040;2023-02-11T12:55:52;9.95;;;5.20;;
77864;SDS011;67061;48.524;9.040;2023-02-11T12:58:25;8.73;;;4.75;;
77864;SDS011;67061;48.524;9.040;2023-02-11T13:00:56;8.27;;;4.70;;
77864;SDS011;67061;48.524;9.040;2023-02-11T13:03:29;12.13;;;5.55;;
77864;SDS011;67061;48.524;9.040;2023-02-11T13:06:03;12.75;;;5.45;;
77864;SDS011;67061;48.524;9.040;2023-02-11T13:08:34;9.10;;;5.82;;
77864;SDS011;67061;48.524;9.040;2023-02-11T13:11:05;9.20;;;5.63;;
77864;SDS011;67061;48.524;9.040;2023-02-11T13:13:38;11.13;;;6.03;;
77864;SDS011;67061;48.524;9.040;2023-02-11T13:16:16;9.43;;;6.00;;
77864;SDS011;67061;48.524;9.040;2023-02-11T13:18:49;9.55;;;6.28;;
77864;SDS011;67061;48.524;9.040;2023-02-11T13:21:31;8.95;;;6.00;;
77864;SDS011;67061;48.524;9.040;2023-02-11T13:24:12;10.30;;;6.70;;
77864;SDS011;67061;48.524;9.040;2023-02-11T13:26:46;10.05;;;5.53;;
77864;SDS011;67061;48.524;9.040;2023-02-11T13:29:27;10.77;;;8.45;;
77864;SDS011;67061;48.524;9.040;2023-02-11T13:32:04;7.95;;;5.30;;
77864;SDS011;67061;48.524;9.040;2023-02-11T13:37:50;9.05;;;5.47;;
77864;SDS011;67061;48.524;9.040;2023-02-11T13:40:20;11.23;;;6.10;;
77864;SDS011;67061;48.524;9.040;2023-02-11T13:42:49;7.55;;;5.32;;
77864;SDS011;67061;48.524;9.040;2023-02-11T13:45:26;10.52;;;6.85;;
77864;SDS011;67061;48.524;9.040;2023-02-11T13:47:55;11.77;;;5.80;;
77864;SDS011;67061;48.524;9.040;2023-02-11T13:50:23;10.32;;;5.50;;
77864;SDS011;67061;48.524;9.040;2023-02-11T13:52:55;8.93;;;6.55;;
77864;SDS011;67061;48.524;9.040;2023-02-11T13:55:24;10.88;;;5.70;;
77864;SDS011;67061;48.524;9.040;2023-02-11T14:00:44;12.25;;;5.13;;
77864;SDS011;67061;48.524;9.040;2023-02-11T14:03:26;7.88;;;5.38;;
77864;SDS011;67061;48.524;9.040;2023-02-11T14:06:14;7.15;;;5.28;;
77864;SDS011;67061;48.524;9.040;2023-02-11T14:09:07;8.73;;;5.03;;
77864;SDS011;67061;48.524;9.040;2023-02-11T14:11:53;9.00;;;5.22;;
77864;SDS011;67061;48.524;9.040;2023-02-11T14:14:56;8.48;;;5.60;;
77864;SDS011;67061;48.524;9.040;2023-02-11T14:17:43;11.13;;;5.20;;
77864;SDS011;67061;48.524;9.040;2023-02-11T14:23:04;9.73;;;5.45;;
77864;SDS011;67061;48.524;9.040;2023-02-11T14:25:32;8.38;;;5.30;;
77864;SDS011;67061;48.524;9.040;2023-02-11T14:28:00;8.77;;;6.22;;
77864;SDS011;67061;48.524;9.040;2023-02-11T14:30:41;9.23;;;5.50;;
77864;SDS011;67061;48.524;9.040;2023-02-11T14:36:29;9.43;;;5.50;;
77864;SDS011;67061;48.524;9.040;2023-02-11T14:39:13;7.75;;;5.18;;
77864;SDS011;67061;48.524;9.040;2023-02-11T14:41:47;9.30;;;5.55;;
77864;SDS011;67061;48.524;9.040;2023-02-11T14:46:44;8.13;;;5.10;;
77864;SDS011;67061;48.524;9.040;2023-02-11T14:49:15;7.95;;;4.88;;
77864;SDS011;67061;48.524;9.040;2023-02-11T14:51:49;8.00;;;5.05;;
77864;SDS011;67061;48.524;9.040;2023-02-11T14:54:18;7.93;;;4.95;;
77864;SDS011;67061;48.524;9.040;2023-02-11T14:57:03;9.60;;;5.97;;
77864;SDS011;67061;48.524;9.040;2023-02-11T14:59:32;9.95;;;5.95;;
77864;SDS011;67061;48.524;9.040;2023-02-11T15:01:59;10.48;;;5.65;;
77864;SDS011;67061;48.524;9.040;2023-02-11T15:04:28;9.05;;;5.15;;
77864;SDS011;67061;48.524;9.040;2023-02-11T15:06:57;9.07;;;5.28;;
77864;SDS011;67061;48.524;9.040;2023-02-11T15:09:30;11.02;;;5.22;;
77864;SDS011;67061;48.524;9.040;2023-02-11T15:12:02;9.05;;;5.03;;
77864;SDS011;67061;48.524;9.040;2023-02-11T15:14:31;8.80;;;5.22;;
77864;SDS011;67061;48.524;9.040;2023-02-11T15:16:59;9.93;;;5.55;;
77864;SDS011;67061;48.524;9.040;2023-02-11T15:19:31;9.00;;;4.63;;
77864;SDS011;67061;48.524;9.040;2023-02-11T15:22:02;7.95;;;4.90;;
77864;SDS011;67061;48.524;9.040;2023-02-11T15:24:31;10.40;;;5.38;;
77864;SDS011;67061;48.524;9.040;2023-02-11T15:29:32;16.70;;;8.13;;
77864;SDS011;67061;48.524;9.040;2023-02-11T15:32:02;15.38;;;9.13;;
77864;SDS011;67061;48.524;9.040;2023-02-11T15:34:32;14.45;;;8.40;;